Time,TemperatureF,DewpointF,PressureIn,WindDirection,WindDirectionDegrees,WindSpeedMPH,WindSpeedGustMPH,Humidity,HourlyPrecipIn,Conditions,Clouds,dailyrainin,SolarRadiationWatts/m^2,SoftwareType,DateUTC
2013-01-24 00:02:00,33.0,28.0,-100.00,South,180,1.0,4.0,80,0.00,,,-99.99,0.000000,,2013-01-24 08:02:00,
2013-01-24 00:12:00,33.0,28.0,-100.00,South,180,1.0,4.0,80,0.00,,,-99.99,0.000000,,2013-01-24 08:12:00,
2013-01-24 00:22:00,33.0,28.0,-100.00,South,180,1.0,4.0,80,0.00,,,-99.99,0.000000,,2013-01-24 08:22:00,
2013-01-24 00:32:00,33.0,28.0,-100.00,South,180,1.0,4.0,80,0.00,,,-99.99,0.000000,,2013-01-24 08:32:00,
2013-01-24 00:53:00,32.0,28.0,-100.00,NNW,347,1.0,3.0,86,0.00,,,-99.99,0.000000,,2013-01-24 08:53:00,
2013-01-24 01:02:00,32.0,28.0,-100.00,NNW,347,1.0,3.0,86,0.00,,,-99.99,0.000000,,2013-01-24 09:02:00,
2013-01-24 01:12:00,32.0,28.0,-100.00,NNW,347,1.0,3.0,86,0.00,,,-99.99,0.000000,,2013-01-24 09:12:00,
2013-01-24 01:22:00,32.0,28.0,-100.00,NNW,347,1.0,3.0,86,0.00,,,-99.99,0.000000,,2013-01-24 09:22:00,
2013-01-24 01:32:00,32.0,28.0,-100.00,NNW,347,1.0,3.0,86,0.00,,,-99.99,0.000000,,2013-01-24 09:32:00,
2013-01-24 02:02:00,32.0,29.0,-100.00,East,98,1.0,2.0,90,0.00,,,-99.99,0.000000,,2013-01-24 10:02:00,
2013-01-24 02:12:00,32.0,29.0,-100.00,East,98,1.0,2.0,90,0.00,,,-99.99,0.000000,,2013-01-24 10:12:00,
2013-01-24 02:22:00,32.0,29.0,-100.00,East,98,1.0,2.0,90,0.00,,,-99.99,0.000000,,2013-01-24 10:22:00,
2013-01-24 02:32:00,32.0,29.0,-100.00,East,98,1.0,2.0,90,0.00,,,-99.99,0.000000,,2013-01-24 10:32:00,
2013-01-24 03:02:00,33.0,31.0,-100.00,North,358,1.0,2.0,94,0.00,,,-99.99,0.000000,,2013-01-24 11:02:00,
2013-01-24 03:12:00,33.0,31.0,-100.00,North,358,1.0,2.0,94,0.00,,,-99.99,0.000000,,2013-01-24 11:12:00,
2013-01-24 03:22:00,33.0,31.0,-100.00,North,358,1.0,2.0,94,0.00,,,-99.99,0.000000,,2013-01-24 11:22:00,
2013-01-24 03:32:00,33.0,31.0,-100.00,North,358,1.0,2.0,94,0.00,,,-99.99,0.000000,,2013-01-24 11:32:00,
2013-01-24 04:03:00,33.0,32.0,-100.00,NW,311,1.0,2.0,96,0.00,,,-99.99,0.000000,,2013-01-24 12:03:00,
2013-01-24 04:12:00,33.0,32.0,-100.00,NW,311,1.0,2.0,96,0.00,,,-99.99,0.000000,,2013-01-24 12:12:00,
2013-01-24 04:22:00,33.0,32.0,-100.00,NW,311,1.0,2.0,96,0.00,,,-99.99,0.000000,,2013-01-24 12:22:00,
2013-01-24 04:32:00,33.0,32.0,-100.00,NW,311,1.0,2.0,96,0.00,,,-99.99,0.000000,,2013-01-24 12:32:00,
2013-01-24 05:02:00,33.0,32.0,-100.00,South,179,1.0,2.0,98,0.00,,,-99.99,0.000000,,2013-01-24 13:02:00,
2013-01-24 05:12:00,33.0,32.0,-100.00,South,179,1.0,2.0,98,0.00,,,-99.99,0.000000,,2013-01-24 13:12:00,
2013-01-24 05:22:00,33.0,32.0,-100.00,South,179,1.0,2.0,98,0.00,,,-99.99,0.000000,,2013-01-24 13:22:00,
2013-01-24 05:32:00,33.0,32.0,-100.00,South,179,1.0,2.0,98,0.00,,,-99.99,0.000000,,2013-01-24 13:32:00,
2013-01-24 06:02:00,33.0,33.0,-100.00,NNW,347,0.0,3.0,99,0.02,,,-99.99,0.000000,,2013-01-24 14:02:00,
2013-01-24 06:12:00,33.0,33.0,-100.00,NNW,347,0.0,3.0,99,0.02,,,-99.99,0.000000,,2013-01-24 14:12:00,
2013-01-24 06:22:00,33.0,33.0,-100.00,NNW,347,0.0,3.0,99,0.02,,,-99.99,0.000000,,2013-01-24 14:22:00,
2013-01-24 06:32:00,33.0,33.0,-100.00,NNW,347,0.0,3.0,99,0.02,,,-99.99,0.000000,,2013-01-24 14:32:00,
2013-01-24 09:03:00,35.0,-99.9,-100.00,North,-999,-999.0,-999.0,-999,-99.99,,,0.02,,,2013-01-24 17:03:00,
2013-01-24 09:12:00,35.0,-99.9,-100.00,North,-999,-999.0,-999.0,-999,-99.99,,,0.02,,,2013-01-24 17:12:00,
2013-01-24 09:23:00,35.0,-99.9,-100.00,North,-999,-999.0,-999.0,-999,-99.99,,,0.02,,,2013-01-24 17:23:00,
2013-01-24 09:33:00,35.0,-99.9,-100.00,North,-999,-999.0,-999.0,-999,-99.99,,,0.02,,,2013-01-24 17:33:00,
2013-01-24 10:02:00,35.0,34.0,-100.00,WNW,302,1.0,3.0,95,0.01,,,0.03,49.000000,,2013-01-24 18:02:00,
2013-01-24 10:12:00,35.0,34.0,-100.00,WNW,302,1.0,3.0,95,0.01,,,0.03,49.000000,,2013-01-24 18:12:00,
2013-01-24 10:22:00,35.0,34.0,-100.00,WNW,302,1.0,3.0,95,0.01,,,0.03,49.000000,,2013-01-24 18:22:00,
2013-01-24 10:32:00,35.0,34.0,-100.00,WNW,302,1.0,3.0,95,0.01,,,0.03,49.000000,,2013-01-24 18:32:00,
2013-01-24 11:02:00,42.0,37.0,-100.00,NNE,15,1.0,4.0,81,0.00,,,0.03,143.000000,,2013-01-24 19:02:00,
2013-01-24 11:12:00,42.0,37.0,-100.00,NNE,15,1.0,4.0,81,0.00,,,0.03,143.000000,,2013-01-24 19:12:00,
2013-01-24 11:21:00,42.0,37.0,-100.00,NNE,15,1.0,4.0,81,0.00,,,0.03,143.000000,,2013-01-24 19:21:00,
2013-01-24 11:32:00,42.0,37.0,-100.00,NNE,15,1.0,4.0,81,0.00,,,0.03,143.000000,,2013-01-24 19:32:00,
2013-01-24 13:02:00,42.0,38.0,-100.00,NW,317,1.0,4.0,85,-99.99,,,0.05,117.000000,,2013-01-24 21:02:00,
2013-01-24 13:12:00,42.0,38.0,-100.00,NW,317,1.0,4.0,85,-99.99,,,0.05,117.000000,,2013-01-24 21:12:00,
2013-01-24 13:22:00,42.0,38.0,-100.00,NW,317,1.0,4.0,85,-99.99,,,0.05,117.000000,,2013-01-24 21:22:00,
2013-01-24 13:32:00,42.0,38.0,-100.00,NW,317,1.0,4.0,85,-99.99,,,0.05,117.000000,,2013-01-24 21:32:00,
2013-01-24 14:02:00,41.0,38.0,-100.00,North,357,1.0,4.0,88,0.00,,,0.05,86.000000,,2013-01-24 22:02:00,
2013-01-24 14:12:00,41.0,38.0,-100.00,North,357,1.0,4.0,88,0.00,,,0.05,86.000000,,2013-01-24 22:12:00,
2013-01-24 14:22:00,41.0,38.0,-100.00,North,357,1.0,4.0,88,0.00,,,0.05,86.000000,,2013-01-24 22:22:00,
2013-01-24 14:32:00,41.0,38.0,-100.00,North,357,1.0,4.0,88,0.00,,,0.05,86.000000,,2013-01-24 22:32:00,
2013-01-24 15:02:00,40.0,38.0,-100.00,NNE,25,1.0,4.0,94,0.03,,,0.08,54.000000,,2013-01-24 23:02:00,
2013-01-24 15:11:00,40.0,38.0,-100.00,NNE,25,1.0,4.0,94,0.03,,,0.08,54.000000,,2013-01-24 23:11:00,
2013-01-24 15:21:00,40.0,38.0,-100.00,NNE,25,1.0,4.0,94,0.03,,,0.08,54.000000,,2013-01-24 23:21:00,
2013-01-24 15:32:00,40.0,38.0,-100.00,NNE,25,1.0,4.0,94,0.03,,,0.08,54.000000,,2013-01-24 23:32:00,
2013-01-24 16:02:00,40.0,39.0,-100.00,NNW,335,1.0,2.0,96,0.04,,,0.12,51.000000,,2013-01-25 00:02:00,
2013-01-24 16:12:00,40.0,39.0,-100.00,NNW,335,1.0,2.0,96,0.04,,,0.12,51.000000,,2013-01-25 00:12:00,
2013-01-24 16:22:00,40.0,39.0,-100.00,NNW,335,1.0,2.0,96,0.04,,,0.12,51.000000,,2013-01-25 00:22:00,
2013-01-24 16:32:00,40.0,39.0,-100.00,NNW,335,1.0,2.0,96,0.04,,,0.12,51.000000,,2013-01-25 00:32:00,
2013-01-24 16:52:00,39.0,38.0,-100.00,SSE,147,0.0,2.0,96,0.02,,,0.14,30.000000,,2013-01-25 00:52:00,
2013-01-24 17:01:00,39.0,38.0,-100.00,SSE,147,0.0,2.0,96,0.02,,,0.14,30.000000,,2013-01-25 01:01:00,
2013-01-24 17:12:00,39.0,38.0,-100.00,SSE,147,0.0,2.0,96,0.02,,,0.14,30.000000,,2013-01-25 01:12:00,
2013-01-24 17:21:00,39.0,38.0,-100.00,SSE,147,0.0,2.0,96,0.02,,,0.14,30.000000,,2013-01-25 01:21:00,
2013-01-24 17:31:00,39.0,38.0,-100.00,SSE,147,0.0,2.0,96,0.02,,,0.14,30.000000,,2013-01-25 01:31:00,